Time;durP1;ratioP1;P1;durP2;ratioP2;P2;SDS_P1;SDS_P2;PMS_P1;PMS_P2;Temp;Humidity;BMP_temperature;BMP_pressure;BME280_temperature;BME280_humidity;BME280_pressure;Samples;Min_cycle;Max_cycle;Signal;HPM_P1;HPM_P2
2023/02/17 00:01:19;;;;;;;2.75;2.30;;;;;;;;;;5012069;28;20041;-78
2023/02/17 00:03:48;;;;;;;3.95;2.30;;;;;;;;;;5002092;28;20029;-77
2023/02/17 00:06:15;;;;;;;2.40;2.20;;;;;;;;;;5012205;28;20053;-79
2023/02/17 00:08:42;;;;;;;5.53;2.65;;;;;;;;;;5008080;28;20027;-78
2023/02/17 00:11:08;;;;;;;3.70;2.10;;;;;;;;;;5004381;28;20019;-77
2023/02/17 00:13:34;;;;;;;2.47;2.28;;;;;;;;;;5012962;28;20026;-77
2023/02/17 00:16:00;;;;;;;4.10;2.47;;;;;;;;;;5013110;28;20030;-77
2023/02/17 00:18:26;;;;;;;4.43;2.70;;;;;;;;;;5013473;28;20089;-77
2023/02/17 00:20:52;;;;;;;8.52;2.75;;;;;;;;;;5032739;28;20056;-78
2023/02/17 00:23:18;;;;;;;4.78;2.60;;;;;;;;;;5020208;28;20383;-76
2023/02/17 00:25:44;;;;;;;4.03;2.40;;;;;;;;;;5004302;28;20054;-78
2023/02/17 00:28:10;;;;;;;2.30;2.05;;;;;;;;;;5017795;28;20532;-77
2023/02/17 00:30:38;;;;;;;3.65;2.33;;;;;;;;;;5025712;28;20028;-78
2023/02/17 00:33:04;;;;;;;3.22;2.35;;;;;;;;;;5017616;28;20181;-78
2023/02/17 00:35:30;;;;;;;3.63;2.28;;;;;;;;;;5013311;28;20022;-77
2023/02/17 00:37:56;;;;;;;7.80;3.50;;;;;;;;;;5006255;28;20041;-76
2023/02/17 00:40:22;;;;;;;3.42;2.38;;;;;;;;;;5007203;28;20025;-77
2023/02/17 00:42:48;;;;;;;3.45;2.40;;;;;;;;;;5018203;28;20018;-78
2023/02/17 00:45:14;;;;;;;2.70;2.25;;;;;;;;;;5008509;28;20028;-77
2023/02/17 00:47:40;;;;;;;3.33;2.17;;;;;;;;;;5005818;28;20029;-77
2023/02/17 00:50:06;;;;;;;4.05;3.00;;;;;;;;;;5000242;28;20151;-77
2023/02/17 00:52:33;;;;;;;7.28;2.40;;;;;;;;;;5010174;28;20032;-77
2023/02/17 00:54:59;;;;;;;3.63;2.20;;;;;;;;;;5004140;28;20037;-76
2023/02/17 00:57:25;;;;;;;4.45;2.40;;;;;;;;;;5011702;28;20034;-77
2023/02/17 00:59:51;;;;;;;4.55;2.78;;;;;;;;;;5019278;28;20065;-80
2023/02/17 01:02:17;;;;;;;5.50;2.40;;;;;;;;;;5003217;28;20034;-78
2023/02/17 01:04:43;;;;;;;3.10;2.00;;;;;;;;;;5009514;28;20022;-79
2023/02/17 01:07:09;;;;;;;4.82;2.10;;;;;;;;;;5017533;28;20123;-76
2023/02/17 01:09:35;;;;;;;6.63;2.80;;;;;;;;;;5012396;28;20427;-76
2023/02/17 01:12:01;;;;;;;3.13;2.53;;;;;;;;;;5016849;28;20459;-76
2023/02/17 01:14:27;;;;;;;3.15;2.65;;;;;;;;;;5006584;28;20053;-77
2023/02/17 01:16:53;;;;;;;4.95;2.30;;;;;;;;;;4997366;28;20040;-77
2023/02/17 01:19:19;;;;;;;3.47;2.40;;;;;;;;;;4997625;28;20125;-76
2023/02/17 01:21:45;;;;;;;2.53;2.00;;;;;;;;;;5013949;28;20037;-79
2023/02/17 01:24:12;;;;;;;3.53;2.00;;;;;;;;;;5015421;28;20041;-77
2023/02/17 01:26:38;;;;;;;5.10;2.17;;;;;;;;;;5016798;28;20441;-77
2023/02/17 01:29:04;;;;;;;3.88;2.00;;;;;;;;;;5016833;28;20022;-78
2023/02/17 01:31:30;;;;;;;3.75;2.05;;;;;;;;;;5024579;28;20124;-79
2023/02/17 01:33:57;;;;;;;4.00;2.30;;;;;;;;;;5017733;28;20022;-79
2023/02/17 01:36:24;;;;;;;2.20;1.88;;;;;;;;;;5008715;28;20022;-79
2023/02/17 01:38:50;;;;;;;2.45;1.70;;;;;;;;;;5018874;28;20022;-78
2023/02/17 01:41:17;;;;;;;4.00;2.00;;;;;;;;;;5014252;28;20069;-79
2023/02/17 01:43:43;;;;;;;3.00;2.00;;;;;;;;;;5004209;28;20080;-80
2023/02/17 01:46:09;;;;;;;3.17;1.80;;;;;;;;;;5007882;28;20416;-79
2023/02/17 01:48:44;;;;;;;1.90;1.70;;;;;;;;;;5010204;28;20052;-79
2023/02/17 01:51:10;;;;;;;2.83;1.70;;;;;;;;;;5001960;28;20026;-79
2023/02/17 01:53:45;;;;;;;2.15;1.95;;;;;;;;;;5018011;28;20033;-79
2023/02/17 01:56:13;;;;;;;4.88;1.70;;;;;;;;;;5000386;28;20030;-80
2023/02/17 01:58:41;;;;;;;1.98;1.75;;;;;;;;;;5033009;28;20045;-80
2023/02/17 02:01:07;;;;;;;2.40;1.65;;;;;;;;;;5020297;28;20072;-77
2023/02/17 02:03:36;;;;;;;3.83;1.88;;;;;;;;;;5021083;28;20022;-79
2023/02/17 02:06:05;;;;;;;2.13;1.60;;;;;;;;;;5010574;28;20021;-80
2023/02/17 02:08:34;;;;;;;1.75;1.52;;;;;;;;;;5024264;28;20029;-75
2023/02/17 02:11:00;;;;;;;2.22;1.40;;;;;;;;;;5003301;28;20496;-78
2023/02/17 02:13:26;;;;;;;2.13;1.75;;;;;;;;;;5010473;28;20037;-79
2023/02/17 02:15:57;;;;;;;1.95;1.85;;;;;;;;;;5014695;28;20040;-78
2023/02/17 02:18:26;;;;;;;2.80;1.67;;;;;;;;;;5010966;28;20022;-80
2023/02/17 02:21:11;;;;;;;2.10;1.70;;;;;;;;;;5019023;28;20389;-78
2023/02/17 02:23:50;;;;;;;2.00;1.80;;;;;;;;;;5021110;28;20028;-79
2023/02/17 02:26:19;;;;;;;1.58;1.48;;;;;;;;;;5007675;28;20340;-81
2023/02/17 02:29:00;;;;;;;2.33;2.10;;;;;;;;;;5005992;28;20042;-79
2023/02/17 02:31:32;;;;;;;2.90;1.55;;;;;;;;;;5006649;28;20038;-77
2023/02/17 02:34:20;;;;;;;1.60;1.50;;;;;;;;;;5005340;28;20497;-79
2023/02/17 02:37:06;;;;;;;3.17;2.45;;;;;;;;;;4993833;28;20038;-80
2023/02/17 02:39:34;;;;;;;1.23;1.20;;;;;;;;;;5010427;28;20026;-78
2023/02/17 02:42:03;;;;;;;1.90;1.40;;;;;;;;;;5008675;28;20074;-80
2023/02/17 02:44:29;;;;;;;2.22;1.65;;;;;;;;;;5012935;28;20018;-78
2023/02/17 02:46:59;;;;;;;1.65;1.45;;;;;;;;;;4999849;28;20557;-79
2023/02/17 02:49:26;;;;;;;1.20;1.20;;;;;;;;;;5006707;28;20324;-78
2023/02/17 02:52:16;;;;;;;1.50;1.40;;;;;;;;;;5015355;28;20030;-78
2023/02/17 02:55:01;;;;;;;1.30;1.20;;;;;;;;;;5002038;28;20045;-79
2023/02/17 02:57:46;;;;;;;1.20;1.20;;;;;;;;;;5012203;28;20076;-79
2023/02/17 03:00:19;;;;;;;1.30;1.20;;;;;;;;;;5022456;28;20597;-79
2023/02/17 03:03:11;;;;;;;1.10;1.10;;;;;;;;;;5006302;28;20062;-77
2023/02/17 03:05:38;;;;;;;1.20;1.20;;;;;;;;;;5003338;28;20062;-79
2023/02/17 03:08:19;;;;;;;1.50;1.40;;;;;;;;;;4999534;28;20027;-79
2023/02/17 03:10:47;;;;;;;1.17;1.17;;;;;;;;;;5003284;28;20030;-81
2023/02/17 03:13:13;;;;;;;1.17;1.17;;;;;;;;;;5004580;28;20037;-79
2023/02/17 03:15:39;;;;;;;1.20;1.20;;;;;;;;;;5010987;28;20026;-79
2023/02/17 03:18:05;;;;;;;1.15;1.13;;;;;;;;;;4999527;28;20065;-78
2023/02/17 03:20:34;;;;;;;1.20;1.20;;;;;;;;;;5007946;28;20045;-79
2023/02/17 03:23:00;;;;;;;1.40;1.25;;;;;;;;;;5005423;28;20030;-79
2023/02/17 03:25:26;;;;;;;1.13;1.13;;;;;;;;;;5003473;28;20033;-78
2023/02/17 03:27:52;;;;;;;2.45;1.30;;;;;;;;;;5015532;28;20197;-79
2023/02/17 03:30:18;;;;;;;1.10;1.10;;;;;;;;;;5011821;28;20030;-75
2023/02/17 03:32:44;;;;;;;1.08;1.08;;;;;;;;;;5009506;28;20432;-79
2023/02/17 03:35:10;;;;;;;1.48;1.38;;;;;;;;;;5011293;28;20884;-79
2023/02/17 03:37:37;;;;;;;1.10;1.10;;;;;;;;;;5015741;28;20472;-78
2023/02/17 03:40:03;;;;;;;1.20;1.20;;;;;;;;;;5025571;28;20038;-79
2023/02/17 03:42:29;;;;;;;1.13;1.13;;;;;;;;;;5024356;28;20427;-80
2023/02/17 03:44:55;;;;;;;1.30;1.13;;;;;;;;;;5006885;28;20030;-79
2023/02/17 03:47:21;;;;;;;0.95;0.95;;;;;;;;;;5002568;28;20019;-77
2023/02/17 03:49:47;;;;;;;2.05;1.45;;;;;;;;;;5002133;28;20057;-81
2023/02/17 03:52:13;;;;;;;1.02;1.02;;;;;;;;;;5013069;28;20034;-77
2023/02/17 03:54:39;;;;;;;1.27;1.17;;;;;;;;;;5005871;28;20027;-78
2023/02/17 03:57:05;;;;;;;2.00;1.30;;;;;;;;;;5020998;28;20034;-80
2023/02/17 03:59:31;;;;;;;1.77;1.27;;;;;;;;;;5022650;28;20400;-79
2023/02/17 04:01:57;;;;;;;2.08;1.30;;;;;;;;;;5013976;28;20121;-78
2023/02/17 04:04:23;;;;;;;1.20;1.20;;;;;;;;;;5012107;28;20034;-80
2023/02/17 04:06:49;;;;;;;2.75;1.40;;;;;;;;;;4999005;28;20073;-79
2023/02/17 04:09:15;;;;;;;1.27;1.27;;;;;;;;;;5016110;28;20040;-79
2023/02/17 04:11:42;;;;;;;1.40;1.30;;;;;;;;;;5015651;28;20496;-78
2023/02/17 04:14:08;;;;;;;1.13;1.10;;;;;;;;;;5013028;28;20054;-77
2023/02/17 04:16:34;;;;;;;1.17;1.17;;;;;;;;;;5000967;28;20026;-76
2023/02/17 04:19:00;;;;;;;1.17;1.17;;;;;;;;;;5008054;28;20033;-76
2023/02/17 04:21:27;;;;;;;1.58;1.30;;;;;;;;;;5007020;28;20476;-77
2023/02/17 04:23:53;;;;;;;2.38;1.33;;;;;;;;;;5016611;28;20015;-78
2023/02/17 04:26:20;;;;;;;1.40;1.30;;;;;;;;;;5002646;28;20053;-78
2023/02/17 04:28:46;;;;;;;2.55;1.88;;;;;;;;;;5020630;28;20014;-79
2023/02/17 04:31:12;;;;;;;1.05;1.05;;;;;;;;;;5012281;28;20065;-76
2023/02/17 04:33:38;;;;;;;1.10;1.10;;;;;;;;;;5024785;28;20036;-77
2023/02/17 04:36:04;;;;;;;1.10;1.10;;;;;;;;;;5014716;28;20034;-76
2023/02/17 04:38:32;;;;;;;1.10;1.10;;;;;;;;;;5014281;28;20073;-77
2023/02/17 04:40:58;;;;;;;1.10;1.10;;;;;;;;;;5006829;28;20102;-77
2023/02/17 04:43:25;;;;;;;1.35;1.20;;;;;;;;;;5007643;28;20025;-78
2023/02/17 04:45:51;;;;;;;1.20;1.10;;;;;;;;;;5007623;28;20013;-78
2023/02/17 04:48:18;;;;;;;1.42;1.20;;;;;;;;;;5008774;28;20021;-78
2023/02/17 04:50:44;;;;;;;1.13;1.13;;;;;;;;;;5012506;28;20033;-79
2023/02/17 04:53:11;;;;;;;0.90;0.90;;;;;;;;;;5001348;28;20042;-76
2023/02/17 04:55:37;;;;;;;1.17;1.10;;;;;;;;;;5012489;28;20024;-78
2023/02/17 04:58:03;;;;;;;1.02;1.02;;;;;;;;;;5019546;28;20045;-78
2023/02/17 05:00:30;;;;;;;0.90;0.90;;;;;;;;;;5011913;28;20025;-77
2023/02/17 05:02:56;;;;;;;0.95;0.95;;;;;;;;;;5016008;28;20032;-77
2023/02/17 05:05:22;;;;;;;1.00;1.00;;;;;;;;;;5006528;28;20431;-78
2023/02/17 05:07:48;;;;;;;1.00;1.00;;;;;;;;;;5006953;28;20014;-79
2023/02/17 05:10:15;;;;;;;1.38;1.00;;;;;;;;;;5008421;28;20031;-77
2023/02/17 05:12:41;;;;;;;1.00;1.00;;;;;;;;;;5008169;28;20026;-77
2023/02/17 05:15:07;;;;;;;1.00;1.00;;;;;;;;;;5005050;28;20033;-78
2023/02/17 05:17:34;;;;;;;0.90;0.90;;;;;;;;;;5010895;28;20028;-79
2023/02/17 05:20:00;;;;;;;0.80;0.80;;;;;;;;;;5013870;28;20058;-77
2023/02/17 05:22:26;;;;;;;1.17;1.17;;;;;;;;;;5014816;28;20030;-77
2023/02/17 05:24:52;;;;;;;1.10;1.10;;;;;;;;;;5003104;28;20182;-80
2023/02/17 05:27:19;;;;;;;1.10;1.10;;;;;;;;;;5007650;28;20022;-77
2023/02/17 05:29:45;;;;;;;1.00;1.00;;;;;;;;;;5010685;28;20032;-78
2023/02/17 05:32:11;;;;;;;1.20;1.20;;;;;;;;;;5012133;28;20412;-77
2023/02/17 05:34:37;;;;;;;2.92;1.05;;;;;;;;;;5007093;28;20084;-77
2023/02/17 05:37:03;;;;;;;0.93;0.93;;;;;;;;;;5008736;28;20259;-77
2023/02/17 05:39:30;;;;;;;1.10;1.10;;;;;;;;;;5007314;28;20032;-77
2023/02/17 05:41:56;;;;;;;1.00;1.00;;;;;;;;;;5016241;28;20031;-79
2023/02/17 05:44:22;;;;;;;1.00;1.00;;;;;;;;;;5022274;28;20538;-78
2023/02/17 05:46:48;;;;;;;1.10;1.10;;;;;;;;;;5022900;28;20028;-77
2023/02/17 05:49:14;;;;;;;1.10;1.10;;;;;;;;;;5034695;28;20034;-78
2023/02/17 05:51:40;;;;;;;1.42;1.33;;;;;;;;;;5027543;28;20130;-78
2023/02/17 05:54:06;;;;;;;1.15;1.15;;;;;;;;;;5019862;28;20032;-78
2023/02/17 05:56:32;;;;;;;1.15;1.15;;;;;;;;;;5018354;28;20029;-78
2023/02/17 05:58:59;;;;;;;1.95;1.85;;;;;;;;;;5019487;28;20037;-77
2023/02/17 06:01:25;;;;;;;1.05;1.05;;;;;;;;;;5010230;28;20017;-77
2023/02/17 06:03:51;;;;;;;1.00;1.00;;;;;;;;;;4998012;28;20065;-77
2023/02/17 06:06:17;;;;;;;3.63;1.10;;;;;;;;;;5025726;28;20033;-79
2023/02/17 06:08:43;;;;;;;1.40;1.33;;;;;;;;;;5010105;28;20026;-77
2023/02/17 06:11:10;;;;;;;1.50;1.40;;;;;;;;;;5015374;28;20040;-78
2023/02/17 06:13:36;;;;;;;1.38;1.27;;;;;;;;;;5008479;28;20021;-77
2023/02/17 06:16:02;;;;;;;1.58;1.23;;;;;;;;;;5004910;28;20033;-77
2023/02/17 06:18:28;;;;;;;1.23;1.23;;;;;;;;;;5011833;28;20030;-78
2023/02/17 06:20:55;;;;;;;1.48;1.38;;;;;;;;;;5012838;28;20559;-77
2023/02/17 06:23:26;;;;;;;1.60;1.50;;;;;;;;;;5013921;28;20041;-78
2023/02/17 06:25:52;;;;;;;1.20;1.20;;;;;;;;;;5007066;28;20018;-77
2023/02/17 06:28:18;;;;;;;2.15;1.35;;;;;;;;;;5010017;28;20060;-77
2023/02/17 06:30:45;;;;;;;1.20;1.20;;;;;;;;;;5013910;28;20041;-77
2023/02/17 06:33:11;;;;;;;1.55;1.45;;;;;;;;;;5004340;28;20031;-78
2023/02/17 06:35:37;;;;;;;1.80;1.30;;;;;;;;;;5004683;28;20034;-78
2023/02/17 06:38:03;;;;;;;2.60;2.40;;;;;;;;;;5003731;28;20045;-78
2023/02/17 06:40:29;;;;;;;1.40;1.30;;;;;;;;;;4999085;28;20027;-78
2023/02/17 06:42:55;;;;;;;1.80;1.40;;;;;;;;;;5005227;28;20029;-78
2023/02/17 06:45:21;;;;;;;1.48;1.38;;;;;;;;;;5006216;28;20032;-78
2023/02/17 06:47:47;;;;;;;2.08;1.40;;;;;;;;;;5008596;28;20037;-81
2023/02/17 06:50:14;;;;;;;1.65;1.55;;;;;;;;;;5016014;28;20060;-78
2023/02/17 06:52:41;;;;;;;2.05;1.60;;;;;;;;;;5012058;28;20023;-77
2023/02/17 06:55:07;;;;;;;1.95;1.55;;;;;;;;;;5011602;28;20038;-77
2023/02/17 06:57:33;;;;;;;2.22;1.52;;;;;;;;;;5011260;28;20026;-79
2023/02/17 06:59:59;;;;;;;2.00;1.60;;;;;;;;;;5008498;28;20037;-77
2023/02/17 07:02:25;;;;;;;4.03;2.08;;;;;;;;;;5005671;28;20025;-76
2023/02/17 07:04:51;;;;;;;3.33;2.03;;;;;;;;;;5010638;28;20033;-77
2023/02/17 07:07:17;;;;;;;3.58;2.13;;;;;;;;;;5002123;28;20161;-75
2023/02/17 07:09:43;;;;;;;2.30;2.10;;;;;;;;;;5009656;28;20025;-75
2023/02/17 07:12:09;;;;;;;2.35;2.00;;;;;;;;;;5009188;28;20026;-77
2023/02/17 07:14:35;;;;;;;2.88;1.92;;;;;;;;;;5037163;28;20093;-78
2023/02/17 07:17:02;;;;;;;3.08;1.90;;;;;;;;;;5007614;28;20393;-78
2023/02/17 07:19:28;;;;;;;6.13;2.15;;;;;;;;;;5010353;28;20076;-78
2023/02/17 07:21:54;;;;;;;6.53;2.60;;;;;;;;;;5011575;28;20038;-76
2023/02/17 07:24:20;;;;;;;6.60;2.10;;;;;;;;;;5004840;28;20018;-76
2023/02/17 07:26:46;;;;;;;10.00;3.63;;;;;;;;;;5002110;28;20045;-77
2023/02/17 07:29:13;;;;;;;7.25;2.88;;;;;;;;;;5012853;28;20030;-77
2023/02/17 07:31:39;;;;;;;6.25;2.75;;;;;;;;;;5010186;28;20108;-75
2023/02/17 07:34:05;;;;;;;10.20;2.53;;;;;;;;;;5007770;28;20034;-79
2023/02/17 07:36:31;;;;;;;8.40;3.08;;;;;;;;;;5005533;28;20026;-76
2023/02/17 07:38:57;;;;;;;12.10;2.75;;;;;;;;;;5004268;28;20033;-77
2023/02/17 07:41:27;;;;;;;10.10;2.88;;;;;;;;;;5007785;28;20492;-77
2023/02/17 07:43:54;;;;;;;10.20;4.40;;;;;;;;;;5012769;28;20041;-79
2023/02/17 07:46:20;;;;;;;12.02;3.20;;;;;;;;;;5008592;28;20026;-78
2023/02/17 07:48:47;;;;;;;8.70;3.63;;;;;;;;;;5006932;28;20014;-77
2023/02/17 07:51:17;;;;;;;16.92;4.13;;;;;;;;;;5003919;28;20030;-79
2023/02/17 07:53:43;;;;;;;11.52;3.25;;;;;;;;;;5008503;28;20029;-79
2023/02/17 07:56:11;;;;;;;8.25;3.17;;;;;;;;;;5004052;28;20050;-79
2023/02/17 07:58:38;;;;;;;10.75;3.25;;;;;;;;;;5005371;28;20030;-78
2023/02/17 08:01:11;;;;;;;15.57;3.63;;;;;;;;;;5002570;28;20257;-79
2023/02/17 08:03:37;;;;;;;12.50;4.07;;;;;;;;;;5005855;28;20070;-77
2023/02/17 08:06:04;;;;;;;11.68;3.55;;;;;;;;;;5002448;28;20034;-79
2023/02/17 08:14:01;;;;;;;11.70;4.25;;;;;;;;;;5010804;28;20091;-78
2023/02/17 08:16:27;;;;;;;15.15;3.40;;;;;;;;;;5018904;28;20022;-78
2023/02/17 08:18:54;;;;;;;10.40;4.70;;;;;;;;;;5007545;28;20025;-79
2023/02/17 08:21:23;;;;;;;15.85;4.28;;;;;;;;;;5005592;28;20026;-78
2023/02/17 08:23:49;;;;;;;19.35;5.80;;;;;;;;;;5008850;28;20408;-79
2023/02/17 08:26:16;;;;;;;15.93;4.38;;;;;;;;;;5012043;28;20031;-79
2023/02/17 08:28:42;;;;;;;10.00;3.20;;;;;;;;;;5011640;28;20093;-79
2023/02/17 08:31:38;;;;;;;14.13;4.05;;;;;;;;;;5014001;28;20511;-79
2023/02/17 08:34:06;;;;;;;12.52;4.13;;;;;;;;;;5010095;28;20406;-78
2023/02/17 08:36:32;;;;;;;22.10;4.85;;;;;;;;;;5010378;28;20037;-78
2023/02/17 08:38:59;;;;;;;17.60;3.63;;;;;;;;;;5013105;28;20049;-79
2023/02/17 08:41:28;;;;;;;18.00;4.68;;;;;;;;;;5009732;28;20052;-78
2023/02/17 08:43:54;;;;;;;12.57;4.05;;;;;;;;;;5009009;28;20030;-79
2023/02/17 08:46:21;;;;;;;22.95;4.78;;;;;;;;;;5025546;28;20480;-80
2023/02/17 08:48:47;;;;;;;13.70;4.75;;;;;;;;;;5011417;28;20100;-79
2023/02/17 08:51:14;;;;;;;15.70;5.57;;;;;;;;;;5010323;28;20056;-78
2023/02/17 08:53:41;;;;;;;20.45;5.70;;;;;;;;;;5019249;28;20042;-78
2023/02/17 08:56:07;;;;;;;26.27;6.55;;;;;;;;;;5011976;28;20042;-79
2023/02/17 08:58:34;;;;;;;14.63;4.72;;;;;;;;;;5006855;28;20543;-79
2023/02/17 09:01:00;;;;;;;17.48;4.80;;;;;;;;;;5009199;28;20053;-79
2023/02/17 09:03:26;;;;;;;21.05;4.38;;;;;;;;;;5004760;28;20041;-79
2023/02/17 09:05:56;;;;;;;11.73;4.63;;;;;;;;;;5010653;28;20082;-79
2023/02/17 09:08:22;;;;;;;18.70;5.20;;;;;;;;;;5009499;28;20026;-79
2023/02/17 09:10:49;;;;;;;23.55;5.88;;;;;;;;;;5014877;28;20022;-79
2023/02/17 09:13:19;;;;;;;18.15;4.65;;;;;;;;;;5010734;28;20119;-78
2023/02/17 09:15:45;;;;;;;20.88;5.13;;;;;;;;;;5008392;28;20140;-79
2023/02/17 09:18:11;;;;;;;22.52;5.57;;;;;;;;;;5005540;28;20057;-80
2023/02/17 09:20:38;;;;;;;26.63;6.95;;;;;;;;;;5006702;28;20041;-79
2023/02/17 09:23:04;;;;;;;23.60;6.75;;;;;;;;;;5010897;28;20034;-80
2023/02/17 09:25:31;;;;;;;23.85;5.75;;;;;;;;;;5023379;28;20412;-79
2023/02/17 09:27:57;;;;;;;24.08;5.25;;;;;;;;;;5025101;28;20112;-85
2023/02/17 09:30:23;;;;;;;25.13;6.00;;;;;;;;;;5009028;28;20061;-79
2023/02/17 09:32:49;;;;;;;19.42;5.00;;;;;;;;;;5011410;28;20540;-80
2023/02/17 09:35:16;;;;;;;22.92;5.90;;;;;;;;;;5006087;28;20030;-78
2023/02/17 09:37:43;;;;;;;21.83;4.82;;;;;;;;;;5008559;28;20026;-78
2023/02/17 09:40:15;;;;;;;18.98;5.30;;;;;;;;;;5017259;28;20026;-79
2023/02/17 09:42:41;;;;;;;23.48;5.72;;;;;;;;;;5014383;28;20026;-79
2023/02/17 09:45:10;;;;;;;19.63;4.68;;;;;;;;;;5014873;28;20415;-80
2023/02/17 09:47:40;;;;;;;22.23;5.07;;;;;;;;;;5025552;28;20397;-80
2023/02/17 09:50:08;;;;;;;20.63;5.00;;;;;;;;;;5013467;28;20022;-79
2023/02/17 09:52:43;;;;;;;20.70;5.28;;;;;;;;;;5006126;28;20353;-79
2023/02/17 09:55:13;;;;;;;17.15;4.30;;;;;;;;;;5005349;28;20034;-79
2023/02/17 09:57:59;;;;;;;16.20;4.15;;;;;;;;;;5008583;28;20036;-80
2023/02/17 10:00:29;;;;;;;31.33;6.93;;;;;;;;;;5005822;28;20969;-79
2023/02/17 10:03:06;;;;;;;17.58;6.15;;;;;;;;;;5004753;28;20030;-79
2023/02/17 10:05:36;;;;;;;16.90;5.72;;;;;;;;;;5026281;28;20062;-79
2023/02/17 10:08:08;;;;;;;22.50;6.43;;;;;;;;;;5011543;28;20026;-78
2023/02/17 10:10:37;;;;;;;27.00;6.85;;;;;;;;;;5016199;28;20057;-80
2023/02/17 10:13:04;;;;;;;21.80;4.93;;;;;;;;;;5012438;28;20556;-79
2023/02/17 10:15:34;;;;;;;20.48;5.22;;;;;;;;;;5009857;28;20507;-79
2023/02/17 10:18:00;;;;;;;15.70;4.20;;;;;;;;;;5011741;28;20030;-80
2023/02/17 10:20:31;;;;;;;21.13;4.15;;;;;;;;;;5008805;28;20104;-80
2023/02/17 10:23:01;;;;;;;22.58;5.57;;;;;;;;;;5008334;28;20026;-79
2023/02/17 10:25:41;;;;;;;31.17;6.10;;;;;;;;;;5014495;28;20034;-79
2023/02/17 10:28:16;;;;;;;17.10;4.93;;;;;;;;;;5013987;28;20045;-79
2023/02/17 10:30:51;;;;;;;23.20;5.65;;;;;;;;;;5009135;28;20539;-79
2023/02/17 10:33:20;;;;;;;25.25;4.70;;;;;;;;;;5017667;28;20385;-78
2023/02/17 10:35:51;;;;;;;24.98;5.47;;;;;;;;;;5018005;28;20045;-80
2023/02/17 10:38:56;;;;;;;26.50;6.07;;;;;;;;;;5014363;28;20041;-79
2023/02/17 10:41:24;;;;;;;22.02;4.68;;;;;;;;;;5010528;28;22156;-81
2023/02/17 10:43:50;;;;;;;15.90;5.50;;;;;;;;;;5016965;28;20029;-80
2023/02/17 10:46:18;;;;;;;20.27;6.00;;;;;;;;;;5017823;28;20033;-79
2023/02/17 10:48:50;;;;;;;14.68;4.55;;;;;;;;;;5010954;28;20117;-78
2023/02/17 10:51:18;;;;;;;15.98;5.03;;;;;;;;;;5010528;28;20076;-78
2023/02/17 10:53:45;;;;;;;15.82;6.05;;;;;;;;;;5012786;28;20022;-78
2023/02/17 10:56:13;;;;;;;21.02;6.22;;;;;;;;;;5027184;28;20025;-78
2023/02/17 10:58:45;;;;;;;28.42;5.22;;;;;;;;;;5024934;28;20080;-80
2023/02/17 11:01:11;;;;;;;15.52;5.35;;;;;;;;;;5023007;28;20041;-80
2023/02/17 11:03:39;;;;;;;20.05;4.80;;;;;;;;;;5007976;28;20033;-79
2023/02/17 11:06:14;;;;;;;22.05;4.32;;;;;;;;;;5009302;28;20018;-80
2023/02/17 11:08:45;;;;;;;22.73;5.75;;;;;;;;;;5008617;28;20496;-79
2023/02/17 11:11:16;;;;;;;18.80;6.13;;;;;;;;;;5015175;28;20056;-78
2023/02/17 11:14:03;;;;;;;22.75;5.85;;;;;;;;;;5027860;28;20093;-79
2023/02/17 11:16:34;;;;;;;19.80;4.82;;;;;;;;;;5009171;28;20038;-78
2023/02/17 11:19:00;;;;;;;13.13;3.92;;;;;;;;;;5021961;28;20065;-80
2023/02/17 11:21:27;;;;;;;13.13;4.25;;;;;;;;;;5008015;28;20030;-77
2023/02/17 11:24:05;;;;;;;16.15;5.57;;;;;;;;;;5010600;28;20024;-77
2023/02/17 11:26:35;;;;;;;12.93;4.30;;;;;;;;;;5005545;28;20034;-78
2023/02/17 11:29:27;;;;;;;14.30;4.35;;;;;;;;;;5010479;28;20021;-80
2023/02/17 11:31:57;;;;;;;16.23;5.15;;;;;;;;;;5008916;28;20054;-79
2023/02/17 11:34:27;;;;;;;15.60;4.65;;;;;;;;;;5008435;28;20129;-78
2023/02/17 11:37:23;;;;;;;18.08;4.30;;;;;;;;;;5010957;28;20018;-79
2023/02/17 11:39:54;;;;;;;15.40;4.15;;;;;;;;;;5020975;28;20446;-80
2023/02/17 11:42:25;;;;;;;17.65;4.82;;;;;;;;;;5012653;28;20562;-79
2023/02/17 11:44:52;;;;;;;13.45;4.57;;;;;;;;;;5018988;28;20018;-79
2023/02/17 11:47:33;;;;;;;14.40;4.00;;;;;;;;;;5025780;28;20388;-78
2023/02/17 11:50:18;;;;;;;18.13;4.90;;;;;;;;;;5009209;28;20109;-81
2023/02/17 11:53:00;;;;;;;13.27;5.00;;;;;;;;;;5030690;28;20526;-80
2023/02/17 11:55:35;;;;;;;15.68;5.55;;;;;;;;;;5022445;28;20281;-78
2023/02/17 11:58:15;;;;;;;12.85;4.22;;;;;;;;;;5021028;28;20041;-81
2023/02/17 12:01:02;;;;;;;18.10;4.00;;;;;;;;;;5025403;28;20025;-78
2023/02/17 12:03:31;;;;;;;13.60;4.70;;;;;;;;;;5018555;28;20052;-80
2023/02/17 12:06:16;;;;;;;15.48;4.05;;;;;;;;;;5014835;28;20033;-79
2023/02/17 12:08:56;;;;;;;12.13;3.53;;;;;;;;;;5035801;28;20026;-77
2023/02/17 12:11:22;;;;;;;13.52;5.32;;;;;;;;;;5026436;28;20123;-79
2023/02/17 12:14:09;;;;;;;12.05;4.53;;;;;;;;;;5024471;28;20081;-77
2023/02/17 12:16:43;;;;;;;13.43;4.13;;;;;;;;;;5042918;28;20026;-79
2023/02/17 12:19:24;;;;;;;13.40;4.57;;;;;;;;;;5017760;28;20034;-77
2023/02/17 12:22:16;;;;;;;15.93;5.10;;;;;;;;;;5012949;28;20030;-79
2023/02/17 12:25:05;;;;;;;12.07;4.03;;;;;;;;;;5033565;28;20041;-78
2023/02/17 12:27:37;;;;;;;12.18;4.43;;;;;;;;;;5018714;28;20054;-80
2023/02/17 12:30:07;;;;;;;14.48;4.63;;;;;;;;;;5024857;28;20041;-78
2023/02/17 12:32:51;;;;;;;16.67;4.95;;;;;;;;;;5023726;28;20112;-78
2023/02/17 12:35:22;;;;;;;14.18;4.63;;;;;;;;;;5018107;28;20021;-78
2023/02/17 12:37:54;;;;;;;16.63;4.63;;;;;;;;;;5018668;28;20539;-78
2023/02/17 12:40:38;;;;;;;10.95;4.05;;;;;;;;;;5016014;28;20026;-78
2023/02/17 12:43:23;;;;;;;14.45;4.25;;;;;;;;;;5030140;28;20673;-78
2023/02/17 12:45:49;;;;;;;;;;;;;;;;;;5039871;28;20500;-82
2023/02/17 12:48:21;;;;;;;16.63;4.47;;;;;;;;;;5023968;28;19958;-78
2023/02/17 12:50:50;;;;;;;11.98;5.68;;;;;;;;;;5027053;28;20025;-78
2023/02/17 12:53:21;;;;;;;17.48;5.05;;;;;;;;;;5024776;28;20033;-78
2023/02/17 12:55:50;;;;;;;20.27;5.18;;;;;;;;;;5027531;28;20094;-78
2023/02/17 12:58:19;;;;;;;20.60;5.97;;;;;;;;;;5028513;28;20018;-80
2023/02/17 13:00:52;;;;;;;16.85;5.50;;;;;;;;;;5026532;28;20025;-81
2023/02/17 13:03:18;;;;;;;15.27;5.03;;;;;;;;;;5021415;28;20022;-77
2023/02/17 13:05:44;;;;;;;14.18;5.07;;;;;;;;;;5034621;28;20021;-77
2023/02/17 13:08:14;;;;;;;20.25;5.57;;;;;;;;;;5027813;28;20100;-79
2023/02/17 13:10:40;;;;;;;17.13;4.82;;;;;;;;;;5015629;28;20026;-78
2023/02/17 13:13:09;;;;;;;16.95;5.28;;;;;;;;;;5025715;28;20547;-80
2023/02/17 13:15:41;;;;;;;16.05;4.22;;;;;;;;;;5022590;28;20094;-77
2023/02/17 13:18:30;;;;;;;13.52;4.70;;;;;;;;;;5034304;28;20045;-77
2023/02/17 13:20:58;;;;;;;11.27;3.70;;;;;;;;;;5020555;28;20049;-78
2023/02/17 13:23:29;;;;;;;13.25;4.60;;;;;;;;;;5028388;28;20032;-79
2023/02/17 13:26:21;;;;;;;13.90;6.50;;;;;;;;;;5031344;28;20027;-77
2023/02/17 13:28:48;;;;;;;14.75;4.35;;;;;;;;;;5023809;28;20034;-77
2023/02/17 13:31:16;;;;;;;17.35;4.43;;;;;;;;;;5029730;28;20056;-79
2023/02/17 13:33:45;;;;;;;20.65;4.28;;;;;;;;;;5024873;28;20052;-77
2023/02/17 13:36:12;;;;;;;18.00;4.28;;;;;;;;;;5026533;28;20029;-78
2023/02/17 13:38:38;;;;;;;15.02;5.53;;;;;;;;;;5025737;28;20021;-77
2023/02/17 13:41:06;;;;;;;12.00;3.80;;;;;;;;;;5026692;28;20037;-77
2023/02/17 13:43:40;;;;;;;19.25;5.65;;;;;;;;;;5016127;28;20033;-78
2023/02/17 13:46:06;;;;;;;14.40;4.82;;;;;;;;;;5024625;28;20026;-80
2023/02/17 13:48:33;;;;;;;11.02;4.20;;;;;;;;;;5026751;28;20038;-77
2023/02/17 13:51:00;;;;;;;16.35;3.92;;;;;;;;;;5022028;28;20112;-77
2023/02/17 13:53:28;;;;;;;13.88;4.38;;;;;;;;;;5019924;28;20018;-79
2023/02/17 13:55:56;;;;;;;14.07;3.92;;;;;;;;;;5017891;28;20022;-80
2023/02/17 13:58:27;;;;;;;18.65;4.57;;;;;;;;;;5022521;28;20044;-79
2023/02/17 14:00:53;;;;;;;13.38;4.93;;;;;;;;;;5025576;28;20357;-78
2023/02/17 14:03:24;;;;;;;12.70;4.35;;;;;;;;;;5011219;28;20026;-79
2023/02/17 14:05:52;;;;;;;18.90;5.57;;;;;;;;;;5022751;28;20018;-80
2023/02/17 14:08:18;;;;;;;14.90;3.95;;;;;;;;;;5020295;28;20022;-77
2023/02/17 14:10:44;;;;;;;15.70;4.15;;;;;;;;;;5025755;28;20100;-78
2023/02/17 14:13:11;;;;;;;17.55;5.10;;;;;;;;;;5023312;28;20384;-78
2023/02/17 14:15:37;;;;;;;17.27;5.68;;;;;;;;;;5018482;28;20034;-78
2023/02/17 14:18:14;;;;;;;19.90;5.82;;;;;;;;;;5013302;28;20102;-80
2023/02/17 14:20:40;;;;;;;13.50;4.53;;;;;;;;;;5016246;28;20050;-79
2023/02/17 14:23:10;;;;;;;14.77;3.92;;;;;;;;;;5013810;28;20026;-80
2023/02/17 14:25:38;;;;;;;14.50;5.20;;;;;;;;;;5021026;28;20025;-76
2023/02/17 14:28:16;;;;;;;17.42;4.20;;;;;;;;;;5017603;28;20094;-79
2023/02/17 14:30:42;;;;;;;10.82;3.47;;;;;;;;;;5013107;28;20025;-78
2023/02/17 14:33:18;;;;;;;10.70;3.40;;;;;;;;;;5016411;28;20033;-79
2023/02/17 14:35:57;;;;;;;13.60;4.32;;;;;;;;;;5017467;28;20081;-77
2023/02/17 14:38:31;;;;;;;12.57;4.60;;;;;;;;;;5012184;28;20048;-81
2023/02/17 14:40:57;;;;;;;18.55;5.13;;;;;;;;;;5020130;28;20019;-79
2023/02/17 14:43:24;;;;;;;10.40;3.90;;;;;;;;;;5019975;28;20026;-79
2023/02/17 14:45:50;;;;;;;12.70;4.72;;;;;;;;;;5010370;28;20025;-77
2023/02/17 14:48:17;;;;;;;12.70;5.18;;;;;;;;;;5012530;28;20030;-80
2023/02/17 14:50:43;;;;;;;14.48;4.82;;;;;;;;;;5021412;28;20022;-80
2023/02/17 14:53:11;;;;;;;17.88;4.75;;;;;;;;;;5021211;28;20030;-78